sensor_id;sensor_type;location;lat;lon;timestamp;P1;durP1;ratioP1;P2;durP2;ratioP2
58101;SDS011;52034;51.926;6.320;2023-08-06T00:00:31;14.03;;;11.07;;
58101;SDS011;52034;51.926;6.320;2023-08-06T00:01:31;12.23;;;10.97;;
58101;SDS011;52034;51.926;6.320;2023-08-06T00:02:31;11.67;;;10.43;;
58101;SDS011;52034;51.926;6.320;2023-08-06T00:03:32;12.77;;;10.67;;
58101;SDS011;52034;51.926;6.320;2023-08-06T00:04:32;15.17;;;11.60;;
58101;SDS011;52034;51.926;6.320;2023-08-06T00:05:32;16.17;;;10.80;;
58101;SDS011;52034;51.926;6.320;2023-08-06T00:06:32;13.00;;;10.17;;
58101;SDS011;52034;51.926;6.320;2023-08-06T00:07:33;13.63;;;10.60;;
58101;SDS011;52034;51.926;6.320;2023-08-06T00:08:33;12.03;;;10.73;;
58101;SDS011;52034;51.926;6.320;2023-08-06T00:09:33;13.73;;;12.07;;
58101;SDS011;52034;51.926;6.320;2023-08-06T00:10:34;11.40;;;10.27;;
58101;SDS011;52034;51.926;6.320;2023-08-06T00:11:34;11.10;;;10.10;;
58101;SDS011;52034;51.926;6.320;2023-08-06T00:12:34;12.63;;;10.27;;
58101;SDS011;52034;51.926;6.320;2023-08-06T00:13:34;11.80;;;10.60;;
58101;SDS011;52034;51.926;6.320;2023-08-06T00:14:37;12.17;;;10.40;;
58101;SDS011;52034;51.926;6.320;2023-08-06T00:15:39;11.98;;;10.13;;
58101;SDS011;52034;51.926;6.320;2023-08-06T00:16:39;13.17;;;11.13;;
58101;SDS011;52034;51.926;6.320;2023-08-06T00:17:40;11.23;;;10.07;;
58101;SDS011;52034;51.926;6.320;2023-08-06T00:18:40;13.20;;;10.83;;
58101;SDS011;52034;51.926;6.320;2023-08-06T00:19:42;13.05;;;10.80;;
58101;SDS011;52034;51.926;6.320;2023-08-06T00:20:42;12.00;;;10.80;;
58101;SDS011;52034;51.926;6.320;2023-08-06T00:21:42;13.43;;;11.13;;
58101;SDS011;52034;51.926;6.320;2023-08-06T00:22:43;12.60;;;11.30;;
58101;SDS011;52034;51.926;6.320;2023-08-06T00:23:43;12.27;;;11.17;;
58101;SDS011;52034;51.926;6.320;2023-08-06T00:24:43;16.03;;;12.60;;
58101;SDS011;52034;51.926;6.320;2023-08-06T00:25:44;13.10;;;11.07;;
58101;SDS011;52034;51.926;6.320;2023-08-06T00:26:44;14.97;;;11.27;;
58101;SDS011;52034;51.926;6.320;2023-08-06T00:27:44;15.27;;;11.87;;
58101;SDS011;52034;51.926;6.320;2023-08-06T00:28:44;15.40;;;11.97;;
58101;SDS011;52034;51.926;6.320;2023-08-06T00:29:45;16.37;;;12.57;;
58101;SDS011;52034;51.926;6.320;2023-08-06T00:30:45;12.80;;;10.40;;
58101;SDS011;52034;51.926;6.320;2023-08-06T00:31:45;13.43;;;11.70;;
58101;SDS011;52034;51.926;6.320;2023-08-06T00:32:46;15.00;;;12.43;;
58101;SDS011;52034;51.926;6.320;2023-08-06T00:33:46;15.27;;;11.53;;
58101;SDS011;52034;51.926;6.320;2023-08-06T00:34:46;16.93;;;12.40;;
58101;SDS011;52034;51.926;6.320;2023-08-06T00:35:49;17.45;;;11.15;;
58101;SDS011;52034;51.926;6.320;2023-08-06T00:36:49;15.47;;;11.90;;
58101;SDS011;52034;51.926;6.320;2023-08-06T00:37:50;13.00;;;11.63;;
58101;SDS011;52034;51.926;6.320;2023-08-06T00:38:50;13.03;;;11.70;;
58101;SDS011;52034;51.926;6.320;2023-08-06T00:39:50;14.80;;;12.30;;
58101;SDS011;52034;51.926;6.320;2023-08-06T00:40:51;13.53;;;12.20;;
58101;SDS011;52034;51.926;6.320;2023-08-06T00:41:51;14.17;;;12.17;;
58101;SDS011;52034;51.926;6.320;2023-08-06T00:42:51;12.63;;;11.37;;
58101;SDS011;52034;51.926;6.320;2023-08-06T00:43:52;13.57;;;11.70;;
58101;SDS011;52034;51.926;6.320;2023-08-06T00:44:52;14.90;;;12.30;;
58101;SDS011;52034;51.926;6.320;2023-08-06T00:45:52;14.73;;;12.20;;
58101;SDS011;52034;51.926;6.320;2023-08-06T00:46:53;12.13;;;10.93;;
58101;SDS011;52034;51.926;6.320;2023-08-06T00:47:53;13.10;;;11.27;;
58101;SDS011;52034;51.926;6.320;2023-08-06T00:48:54;13.88;;;11.35;;
58101;SDS011;52034;51.926;6.320;2023-08-06T00:49:55;13.27;;;10.73;;
58101;SDS011;52034;51.926;6.320;2023-08-06T00:50:56;12.53;;;11.33;;
58101;SDS011;52034;51.926;6.320;2023-08-06T00:51:56;14.57;;;11.70;;
58101;SDS011;52034;51.926;6.320;2023-08-06T00:52:57;13.75;;;12.35;;
58101;SDS011;52034;51.926;6.320;2023-08-06T00:53:58;12.85;;;11.10;;
58101;SDS011;52034;51.926;6.320;2023-08-06T00:54:58;17.53;;;12.43;;
58101;SDS011;52034;51.926;6.320;2023-08-06T00:55:59;14.27;;;11.77;;
58101;SDS011;52034;51.926;6.320;2023-08-06T00:56:59;14.87;;;11.80;;
58101;SDS011;52034;51.926;6.320;2023-08-06T00:58:01;16.77;;;13.13;;
58101;SDS011;52034;51.926;6.320;2023-08-06T01:00:06;15.30;;;11.77;;
58101;SDS011;52034;51.926;6.320;2023-08-06T01:01:07;14.25;;;12.77;;
58101;SDS011;52034;51.926;6.320;2023-08-06T01:02:07;14.40;;;12.37;;
58101;SDS011;52034;51.926;6.320;2023-08-06T01:03:08;15.23;;;12.17;;
58101;SDS011;52034;51.926;6.320;2023-08-06T01:04:08;16.20;;;13.87;;
58101;SDS011;52034;51.926;6.320;2023-08-06T01:05:08;15.83;;;13.53;;
58101;SDS011;52034;51.926;6.320;2023-08-06T01:06:09;16.70;;;12.90;;
58101;SDS011;52034;51.926;6.320;2023-08-06T01:11:33;15.73;;;12.45;;
58101;SDS011;52034;51.926;6.320;2023-08-06T01:12:45;16.17;;;12.43;;
58101;SDS011;52034;51.926;6.320;2023-08-06T01:14:12;16.60;;;13.23;;
58101;SDS011;52034;51.926;6.320;2023-08-06T01:15:19;15.52;;;12.32;;
58101;SDS011;52034;51.926;6.320;2023-08-06T01:16:24;13.75;;;12.25;;
58101;SDS011;52034;51.926;6.320;2023-08-06T01:17:25;13.93;;;12.40;;
58101;SDS011;52034;51.926;6.320;2023-08-06T01:18:26;14.45;;;12.82;;
58101;SDS011;52034;51.926;6.320;2023-08-06T01:19:27;16.47;;;13.73;;
58101;SDS011;52034;51.926;6.320;2023-08-06T01:20:28;15.20;;;13.33;;
58101;SDS011;52034;51.926;6.320;2023-08-06T01:21:29;13.85;;;12.40;;
58101;SDS011;52034;51.926;6.320;2023-08-06T01:22:29;15.80;;;13.80;;
58101;SDS011;52034;51.926;6.320;2023-08-06T01:23:30;14.87;;;12.97;;
58101;SDS011;52034;51.926;6.320;2023-08-06T01:24:30;15.38;;;13.20;;
58101;SDS011;52034;51.926;6.320;2023-08-06T01:25:35;13.77;;;12.33;;
58101;SDS011;52034;51.926;6.320;2023-08-06T01:26:48;15.10;;;11.98;;
58101;SDS011;52034;51.926;6.320;2023-08-06T01:27:55;15.75;;;12.32;;
58101;SDS011;52034;51.926;6.320;2023-08-06T01:30:12;14.38;;;12.20;;
58101;SDS011;52034;51.926;6.320;2023-08-06T01:31:24;19.17;;;15.30;;
58101;SDS011;52034;51.926;6.320;2023-08-06T01:32:28;15.20;;;13.23;;
58101;SDS011;52034;51.926;6.320;2023-08-06T01:33:32;16.08;;;13.68;;
58101;SDS011;52034;51.926;6.320;2023-08-06T01:34:34;15.23;;;12.82;;
58101;SDS011;52034;51.926;6.320;2023-08-06T01:35:36;14.70;;;13.15;;
58101;SDS011;52034;51.926;6.320;2023-08-06T01:36:38;13.88;;;12.35;;
58101;SDS011;52034;51.926;6.320;2023-08-06T01:37:38;14.40;;;11.93;;
58101;SDS011;52034;51.926;6.320;2023-08-06T01:38:40;14.20;;;12.68;;
58101;SDS011;52034;51.926;6.320;2023-08-06T01:39:42;14.13;;;12.63;;
58101;SDS011;52034;51.926;6.320;2023-08-06T01:40:42;14.85;;;12.55;;
58101;SDS011;52034;51.926;6.320;2023-08-06T01:41:43;15.23;;;13.50;;
58101;SDS011;52034;51.926;6.320;2023-08-06T01:42:43;14.63;;;13.00;;
58101;SDS011;52034;51.926;6.320;2023-08-06T01:43:44;14.93;;;13.03;;
58101;SDS011;52034;51.926;6.320;2023-08-06T01:44:44;17.17;;;13.60;;
58101;SDS011;52034;51.926;6.320;2023-08-06T01:45:45;17.27;;;14.73;;
58101;SDS011;52034;51.926;6.320;2023-08-06T01:46:45;16.53;;;13.80;;
58101;SDS011;52034;51.926;6.320;2023-08-06T01:47:45;16.40;;;13.73;;
58101;SDS011;52034;51.926;6.320;2023-08-06T01:48:45;16.77;;;14.13;;
58101;SDS011;52034;51.926;6.320;2023-08-06T01:49:46;14.37;;;12.97;;
58101;SDS011;52034;51.926;6.320;2023-08-06T01:50:46;13.90;;;12.47;;
58101;SDS011;52034;51.926;6.320;2023-08-06T01:51:46;17.87;;;15.03;;
58101;SDS011;52034;51.926;6.320;2023-08-06T01:52:47;16.97;;;14.57;;
58101;SDS011;52034;51.926;6.320;2023-08-06T01:53:47;15.30;;;13.50;;
58101;SDS011;52034;51.926;6.320;2023-08-06T01:54:47;12.47;;;11.27;;
58101;SDS011;52034;51.926;6.320;2023-08-06T01:55:48;16.67;;;13.10;;
58101;SDS011;52034;51.926;6.320;2023-08-06T01:56:49;14.30;;;12.57;;
58101;SDS011;52034;51.926;6.320;2023-08-06T01:57:50;13.55;;;11.65;;
58101;SDS011;52034;51.926;6.320;2023-08-06T01:58:50;15.67;;;13.93;;
58101;SDS011;52034;51.926;6.320;2023-08-06T01:59:51;16.87;;;13.80;;
58101;SDS011;52034;51.926;6.320;2023-08-06T02:00:51;15.47;;;13.13;;
58101;SDS011;52034;51.926;6.320;2023-08-06T02:01:52;15.27;;;12.07;;
58101;SDS011;52034;51.926;6.320;2023-08-06T02:02:52;14.20;;;12.57;;
58101;SDS011;52034;51.926;6.320;2023-08-06T02:03:52;14.00;;;12.53;;
58101;SDS011;52034;51.926;6.320;2023-08-06T02:04:53;16.60;;;12.87;;
58101;SDS011;52034;51.926;6.320;2023-08-06T02:05:53;13.83;;;12.40;;
58101;SDS011;52034;51.926;6.320;2023-08-06T02:06:54;14.20;;;11.63;;
58101;SDS011;52034;51.926;6.320;2023-08-06T02:07:54;15.03;;;12.00;;
58101;SDS011;52034;51.926;6.320;2023-08-06T02:08:55;14.63;;;12.00;;
58101;SDS011;52034;51.926;6.320;2023-08-06T02:09:55;13.27;;;12.00;;
58101;SDS011;52034;51.926;6.320;2023-08-06T02:10:55;13.17;;;11.50;;
58101;SDS011;52034;51.926;6.320;2023-08-06T02:11:55;15.90;;;13.37;;
58101;SDS011;52034;51.926;6.320;2023-08-06T02:12:56;15.87;;;12.03;;
58101;SDS011;52034;51.926;6.320;2023-08-06T02:13:56;14.63;;;12.50;;
58101;SDS011;52034;51.926;6.320;2023-08-06T02:14:56;18.20;;;14.37;;
58101;SDS011;52034;51.926;6.320;2023-08-06T02:15:57;15.63;;;13.37;;
58101;SDS011;52034;51.926;6.320;2023-08-06T02:16:58;16.83;;;12.82;;
58101;SDS011;52034;51.926;6.320;2023-08-06T02:17:59;16.02;;;13.13;;
58101;SDS011;52034;51.926;6.320;2023-08-06T02:19:00;14.95;;;13.40;;
58101;SDS011;52034;51.926;6.320;2023-08-06T02:20:00;15.20;;;13.03;;
58101;SDS011;52034;51.926;6.320;2023-08-06T02:22:03;13.38;;;12.07;;
58101;SDS011;52034;51.926;6.320;2023-08-06T02:23:03;14.70;;;12.70;;
58101;SDS011;52034;51.926;6.320;2023-08-06T02:24:03;16.03;;;12.73;;
58101;SDS011;52034;51.926;6.320;2023-08-06T02:25:04;13.47;;;12.07;;
58101;SDS011;52034;51.926;6.320;2023-08-06T02:26:05;22.27;;;14.03;;
58101;SDS011;52034;51.926;6.320;2023-08-06T02:27:05;14.80;;;12.13;;
58101;SDS011;52034;51.926;6.320;2023-08-06T02:28:05;14.77;;;12.97;;
58101;SDS011;52034;51.926;6.320;2023-08-06T02:29:06;13.00;;;11.67;;
58101;SDS011;52034;51.926;6.320;2023-08-06T02:30:06;13.63;;;11.93;;
58101;SDS011;52034;51.926;6.320;2023-08-06T02:31:06;13.43;;;12.07;;
58101;SDS011;52034;51.926;6.320;2023-08-06T02:32:09;13.20;;;11.73;;
58101;SDS011;52034;51.926;6.320;2023-08-06T02:33:09;17.13;;;11.87;;
58101;SDS011;52034;51.926;6.320;2023-08-06T02:34:09;15.60;;;11.67;;
58101;SDS011;52034;51.926;6.320;2023-08-06T02:35:10;14.33;;;11.60;;
58101;SDS011;52034;51.926;6.320;2023-08-06T02:36:10;14.60;;;12.80;;
58101;SDS011;52034;51.926;6.320;2023-08-06T02:37:10;18.33;;;13.43;;
58101;SDS011;52034;51.926;6.320;2023-08-06T02:39:12;15.70;;;12.82;;
58101;SDS011;52034;51.926;6.320;2023-08-06T02:40:13;14.70;;;12.57;;
58101;SDS011;52034;51.926;6.320;2023-08-06T02:41:13;15.03;;;12.53;;
58101;SDS011;52034;51.926;6.320;2023-08-06T02:42:13;12.87;;;11.57;;
58101;SDS011;52034;51.926;6.320;2023-08-06T02:43:14;13.77;;;12.37;;
58101;SDS011;52034;51.926;6.320;2023-08-06T02:44:14;14.18;;;12.27;;
58101;SDS011;52034;51.926;6.320;2023-08-06T02:45:15;19.03;;;12.33;;
58101;SDS011;52034;51.926;6.320;2023-08-06T02:46:15;15.67;;;13.27;;
58101;SDS011;52034;51.926;6.320;2023-08-06T02:47:15;17.00;;;13.37;;
58101;SDS011;52034;51.926;6.320;2023-08-06T02:48:15;15.90;;;11.63;;
58101;SDS011;52034;51.926;6.320;2023-08-06T02:49:18;13.38;;;11.98;;
58101;SDS011;52034;51.926;6.320;2023-08-06T02:50:19;14.90;;;13.13;;
58101;SDS011;52034;51.926;6.320;2023-08-06T02:51:19;13.90;;;12.50;;
58101;SDS011;52034;51.926;6.320;2023-08-06T02:52:19;15.00;;;11.53;;
58101;SDS011;52034;51.926;6.320;2023-08-06T02:53:20;15.57;;;12.90;;
58101;SDS011;52034;51.926;6.320;2023-08-06T02:54:22;17.25;;;12.70;;
58101;SDS011;52034;51.926;6.320;2023-08-06T02:55:22;12.63;;;11.40;;
58101;SDS011;52034;51.926;6.320;2023-08-06T02:56:24;12.45;;;10.85;;
58101;SDS011;52034;51.926;6.320;2023-08-06T02:57:33;16.88;;;12.82;;
58101;SDS011;52034;51.926;6.320;2023-08-06T02:58:33;14.40;;;12.17;;
58101;SDS011;52034;51.926;6.320;2023-08-06T02:59:45;15.57;;;12.50;;
58101;SDS011;52034;51.926;6.320;2023-08-06T03:01:02;14.60;;;12.75;;
58101;SDS011;52034;51.926;6.320;2023-08-06T03:02:04;16.52;;;11.80;;
58101;SDS011;52034;51.926;6.320;2023-08-06T03:03:30;13.32;;;11.70;;
58101;SDS011;52034;51.926;6.320;2023-08-06T03:04:33;16.35;;;12.48;;
58101;SDS011;52034;51.926;6.320;2023-08-06T03:05:33;17.70;;;12.67;;
58101;SDS011;52034;51.926;6.320;2023-08-06T03:06:34;13.90;;;11.83;;
58101;SDS011;52034;51.926;6.320;2023-08-06T03:08:43;15.18;;;12.18;;
58101;SDS011;52034;51.926;6.320;2023-08-06T03:09:44;12.33;;;11.03;;
58101;SDS011;52034;51.926;6.320;2023-08-06T03:10:44;13.53;;;11.67;;
58101;SDS011;52034;51.926;6.320;2023-08-06T03:11:46;13.50;;;11.77;;
58101;SDS011;52034;51.926;6.320;2023-08-06T03:12:48;14.27;;;12.23;;
58101;SDS011;52034;51.926;6.320;2023-08-06T03:13:49;17.53;;;12.87;;
58101;SDS011;52034;51.926;6.320;2023-08-06T03:14:50;16.05;;;12.00;;
58101;SDS011;52034;51.926;6.320;2023-08-06T03:15:54;16.23;;;12.03;;
58101;SDS011;52034;51.926;6.320;2023-08-06T03:16:56;14.23;;;11.20;;
58101;SDS011;52034;51.926;6.320;2023-08-06T03:17:56;17.40;;;12.87;;
58101;SDS011;52034;51.926;6.320;2023-08-06T03:18:57;13.03;;;11.57;;
58101;SDS011;52034;51.926;6.320;2023-08-06T03:19:57;14.97;;;13.37;;
58101;SDS011;52034;51.926;6.320;2023-08-06T03:20:58;12.85;;;11.55;;
58101;SDS011;52034;51.926;6.320;2023-08-06T03:22:02;17.67;;;11.93;;
58101;SDS011;52034;51.926;6.320;2023-08-06T03:23:02;14.95;;;12.20;;
58101;SDS011;52034;51.926;6.320;2023-08-06T03:24:05;14.23;;;11.57;;
58101;SDS011;52034;51.926;6.320;2023-08-06T03:25:07;16.15;;;12.70;;
58101;SDS011;52034;51.926;6.320;2023-08-06T03:26:09;18.75;;;12.88;;
58101;SDS011;52034;51.926;6.320;2023-08-06T03:27:10;13.85;;;12.15;;
58101;SDS011;52034;51.926;6.320;2023-08-06T03:28:13;13.02;;;11.63;;
58101;SDS011;52034;51.926;6.320;2023-08-06T03:29:13;15.13;;;12.43;;
58101;SDS011;52034;51.926;6.320;2023-08-06T03:30:15;14.32;;;12.80;;
58101;SDS011;52034;51.926;6.320;2023-08-06T03:31:15;15.03;;;12.60;;
58101;SDS011;52034;51.926;6.320;2023-08-06T03:32:18;17.05;;;11.25;;
58101;SDS011;52034;51.926;6.320;2023-08-06T03:33:19;15.60;;;11.80;;
58101;SDS011;52034;51.926;6.320;2023-08-06T03:34:19;16.37;;;12.33;;
58101;SDS011;52034;51.926;6.320;2023-08-06T03:35:21;18.38;;;12.93;;
58101;SDS011;52034;51.926;6.320;2023-08-06T03:36:22;18.00;;;12.63;;
58101;SDS011;52034;51.926;6.320;2023-08-06T03:37:23;15.35;;;12.15;;
58101;SDS011;52034;51.926;6.320;2023-08-06T03:39:25;15.02;;;11.93;;
58101;SDS011;52034;51.926;6.320;2023-08-06T03:40:26;12.77;;;11.43;;
58101;SDS011;52034;51.926;6.320;2023-08-06T03:41:26;13.57;;;11.10;;
58101;SDS011;52034;51.926;6.320;2023-08-06T03:42:27;14.83;;;11.27;;
58101;SDS011;52034;51.926;6.320;2023-08-06T03:43:27;15.10;;;11.10;;
58101;SDS011;52034;51.926;6.320;2023-08-06T03:44:28;12.73;;;11.40;;
58101;SDS011;52034;51.926;6.320;2023-08-06T03:45:29;12.63;;;11.33;;
58101;SDS011;52034;51.926;6.320;2023-08-06T03:46:29;16.00;;;11.63;;
58101;SDS011;52034;51.926;6.320;2023-08-06T03:47:34;14.13;;;11.88;;
58101;SDS011;52034;51.926;6.320;2023-08-06T03:48:34;16.07;;;12.33;;
58101;SDS011;52034;51.926;6.320;2023-08-06T03:49:35;16.07;;;12.37;;
58101;SDS011;52034;51.926;6.320;2023-08-06T03:50:35;12.50;;;10.70;;
58101;SDS011;52034;51.926;6.320;2023-08-06T03:51:35;13.77;;;11.43;;
58101;SDS011;52034;51.926;6.320;2023-08-06T03:52:36;16.27;;;11.57;;
58101;SDS011;52034;51.926;6.320;2023-08-06T03:53:36;16.70;;;12.40;;
58101;SDS011;52034;51.926;6.320;2023-08-06T03:54:37;11.73;;;10.23;;
58101;SDS011;52034;51.926;6.320;2023-08-06T03:55:37;14.57;;;10.27;;
58101;SDS011;52034;51.926;6.320;2023-08-06T03:56:37;12.73;;;10.67;;
58101;SDS011;52034;51.926;6.320;2023-08-06T03:57:38;12.73;;;10.13;;
58101;SDS011;52034;51.926;6.320;2023-08-06T03:58:38;12.63;;;9.57;;
58101;SDS011;52034;51.926;6.320;2023-08-06T03:59:38;12.37;;;10.20;;
58101;SDS011;52034;51.926;6.320;2023-08-06T04:00:38;14.97;;;10.77;;
58101;SDS011;52034;51.926;6.320;2023-08-06T04:01:39;10.57;;;9.47;;
58101;SDS011;52034;51.926;6.320;2023-08-06T04:02:39;13.03;;;9.80;;
58101;SDS011;52034;51.926;6.320;2023-08-06T04:03:39;11.67;;;10.23;;
58101;SDS011;52034;51.926;6.320;2023-08-06T04:04:40;11.40;;;10.20;;
58101;SDS011;52034;51.926;6.320;2023-08-06T04:05:40;13.40;;;10.40;;
58101;SDS011;52034;51.926;6.320;2023-08-06T04:06:40;12.37;;;10.40;;
58101;SDS011;52034;51.926;6.320;2023-08-06T04:07:41;12.10;;;9.80;;
58101;SDS011;52034;51.926;6.320;2023-08-06T04:08:41;10.40;;;9.30;;
58101;SDS011;52034;51.926;6.320;2023-08-06T04:09:51;14.27;;;10.77;;
58101;SDS011;52034;51.926;6.320;2023-08-06T04:10:56;13.48;;;10.60;;
58101;SDS011;52034;51.926;6.320;2023-08-06T04:11:57;10.77;;;9.67;;
58101;SDS011;52034;51.926;6.320;2023-08-06T04:12:58;10.60;;;9.50;;
58101;SDS011;52034;51.926;6.320;2023-08-06T04:13:59;11.87;;;10.63;;
58101;SDS011;52034;51.926;6.320;2023-08-06T04:15:00;11.63;;;10.07;;
58101;SDS011;52034;51.926;6.320;2023-08-06T04:16:02;11.45;;;10.23;;
58101;SDS011;52034;51.926;6.320;2023-08-06T04:17:04;11.68;;;9.90;;
58101;SDS011;52034;51.926;6.320;2023-08-06T04:18:04;12.73;;;10.50;;
58101;SDS011;52034;51.926;6.320;2023-08-06T04:19:04;11.63;;;10.43;;
58101;SDS011;52034;51.926;6.320;2023-08-06T04:20:05;12.03;;;10.83;;
58101;SDS011;52034;51.926;6.320;2023-08-06T04:21:06;13.20;;;11.32;;
58101;SDS011;52034;51.926;6.320;2023-08-06T04:22:06;14.80;;;10.87;;
58101;SDS011;52034;51.926;6.320;2023-08-06T04:23:07;15.55;;;10.50;;
58101;SDS011;52034;51.926;6.320;2023-08-06T04:24:08;14.17;;;11.13;;
58101;SDS011;52034;51.926;6.320;2023-08-06T04:25:08;15.47;;;11.27;;
58101;SDS011;52034;51.926;6.320;2023-08-06T04:26:09;11.20;;;10.00;;
58101;SDS011;52034;51.926;6.320;2023-08-06T04:27:11;13.40;;;10.30;;
58101;SDS011;52034;51.926;6.320;2023-08-06T04:28:12;14.13;;;11.18;;
58101;SDS011;52034;51.926;6.320;2023-08-06T04:29:12;12.63;;;10.47;;
58101;SDS011;52034;51.926;6.320;2023-08-06T04:30:13;11.47;;;10.27;;
58101;SDS011;52034;51.926;6.320;2023-08-06T04:31:13;12.37;;;10.80;;
58101;SDS011;52034;51.926;6.320;2023-08-06T04:32:15;12.93;;;11.35;;
58101;SDS011;52034;51.926;6.320;2023-08-06T04:33:21;14.30;;;10.90;;
58101;SDS011;52034;51.926;6.320;2023-08-06T04:34:21;14.80;;;10.50;;
58101;SDS011;52034;51.926;6.320;2023-08-06T04:35:22;13.27;;;10.80;;
58101;SDS011;52034;51.926;6.320;2023-08-06T04:36:22;13.57;;;11.10;;
58101;SDS011;52034;51.926;6.320;2023-08-06T04:37:23;13.70;;;11.33;;
58101;SDS011;52034;51.926;6.320;2023-08-06T04:38:23;11.40;;;10.13;;
58101;SDS011;52034;51.926;6.320;2023-08-06T04:39:28;14.70;;;10.98;;
58101;SDS011;52034;51.926;6.320;2023-08-06T04:40:29;11.90;;;10.15;;
58101;SDS011;52034;51.926;6.320;2023-08-06T04:41:29;12.23;;;10.93;;
58101;SDS011;52034;51.926;6.320;2023-08-06T04:42:30;14.73;;;11.77;;
58101;SDS011;52034;51.926;6.320;2023-08-06T04:43:30;13.70;;;10.80;;
58101;SDS011;52034;51.926;6.320;2023-08-06T04:44:31;14.40;;;11.23;;
58101;SDS011;52034;51.926;6.320;2023-08-06T04:45:31;13.93;;;11.27;;
58101;SDS011;52034;51.926;6.320;2023-08-06T04:46:31;18.37;;;11.17;;
58101;SDS011;52034;51.926;6.320;2023-08-06T04:47:31;15.10;;;11.57;;
58101;SDS011;52034;51.926;6.320;2023-08-06T04:48:32;13.00;;;11.37;;
58101;SDS011;52034;51.926;6.320;2023-08-06T04:49:32;13.37;;;11.43;;
58101;SDS011;52034;51.926;6.320;2023-08-06T04:50:32;13.87;;;11.17;;
58101;SDS011;52034;51.926;6.320;2023-08-06T04:51:33;11.10;;;10.10;;
58101;SDS011;52034;51.926;6.320;2023-08-06T04:52:33;17.70;;;12.77;;
58101;SDS011;52034;51.926;6.320;2023-08-06T04:53:33;17.30;;;12.30;;
58101;SDS011;52034;51.926;6.320;2023-08-06T04:54:34;13.93;;;12.50;;
58101;SDS011;52034;51.926;6.320;2023-08-06T04:55:34;13.43;;;11.40;;
58101;SDS011;52034;51.926;6.320;2023-08-06T04:56:34;14.27;;;11.93;;
58101;SDS011;52034;51.926;6.320;2023-08-06T04:57:34;14.30;;;12.20;;
58101;SDS011;52034;51.926;6.320;2023-08-06T04:58:35;15.87;;;13.27;;
58101;SDS011;52034;51.926;6.320;2023-08-06T04:59:35;16.90;;;13.67;;
58101;SDS011;52034;51.926;6.320;2023-08-06T05:00:35;15.53;;;12.30;;
58101;SDS011;52034;51.926;6.320;2023-08-06T05:01:36;13.27;;;11.87;;
58101;SDS011;52034;51.926;6.320;2023-08-06T05:02:36;14.97;;;12.37;;
58101;SDS011;52034;51.926;6.320;2023-08-06T05:03:38;14.20;;;12.77;;
58101;SDS011;52034;51.926;6.320;2023-08-06T05:04:38;15.77;;;13.73;;
58101;SDS011;52034;51.926;6.320;2023-08-06T05:05:42;17.47;;;12.20;;
58101;SDS011;52034;51.926;6.320;2023-08-06T05:06:42;17.00;;;13.48;;
58101;SDS011;52034;51.926;6.320;2023-08-06T05:07:42;16.33;;;13.83;;
58101;SDS011;52034;51.926;6.320;2023-08-06T05:08:43;15.47;;;13.83;;
58101;SDS011;52034;51.926;6.320;2023-08-06T05:09:43;17.60;;;15.17;;
58101;SDS011;52034;51.926;6.320;2023-08-06T05:10:44;15.20;;;13.13;;
58101;SDS011;52034;51.926;6.320;2023-08-06T05:11:45;22.98;;;14.57;;
58101;SDS011;52034;51.926;6.320;2023-08-06T05:12:49;18.58;;;14.73;;
58101;SDS011;52034;51.926;6.320;2023-08-06T05:13:49;18.10;;;15.47;;
58101;SDS011;52034;51.926;6.320;2023-08-06T05:14:49;20.03;;;16.57;;
58101;SDS011;52034;51.926;6.320;2023-08-06T05:15:50;18.87;;;15.00;;
58101;SDS011;52034;51.926;6.320;2023-08-06T05:16:50;23.90;;;17.33;;
58101;SDS011;52034;51.926;6.320;2023-08-06T05:17:50;18.07;;;16.07;;
58101;SDS011;52034;51.926;6.320;2023-08-06T05:18:51;21.70;;;17.27;;
58101;SDS011;52034;51.926;6.320;2023-08-06T05:19:51;18.33;;;16.37;;
58101;SDS011;52034;51.926;6.320;2023-08-06T05:20:51;18.73;;;16.07;;
58101;SDS011;52034;51.926;6.320;2023-08-06T05:21:52;18.00;;;16.20;;
58101;SDS011;52034;51.926;6.320;2023-08-06T05:22:52;21.33;;;15.80;;
58101;SDS011;52034;51.926;6.320;2023-08-06T05:23:52;17.60;;;15.70;;
58101;SDS011;52034;51.926;6.320;2023-08-06T05:24:53;18.20;;;16.03;;
58101;SDS011;52034;51.926;6.320;2023-08-06T05:25:53;17.90;;;16.00;;
58101;SDS011;52034;51.926;6.320;2023-08-06T05:26:53;18.60;;;16.60;;
58101;SDS011;52034;51.926;6.320;2023-08-06T05:27:53;18.63;;;15.40;;
58101;SDS011;52034;51.926;6.320;2023-08-06T05:28:54;18.37;;;16.50;;
58101;SDS011;52034;51.926;6.320;2023-08-06T05:29:55;19.67;;;16.50;;
58101;SDS011;52034;51.926;6.320;2023-08-06T05:30:58;22.20;;;17.35;;
58101;SDS011;52034;51.926;6.320;2023-08-06T05:32:02;18.90;;;16.55;;
58101;SDS011;52034;51.926;6.320;2023-08-06T05:33:03;18.17;;;15.02;;
58101;SDS011;52034;51.926;6.320;2023-08-06T05:34:04;19.87;;;16.23;;
58101;SDS011;52034;51.926;6.320;2023-08-06T05:35:04;17.87;;;16.07;;
58101;SDS011;52034;51.926;6.320;2023-08-06T05:36:05;17.20;;;15.50;;
58101;SDS011;52034;51.926;6.320;2023-08-06T05:37:05;18.17;;;16.27;;
58101;SDS011;52034;51.926;6.320;2023-08-06T05:38:05;19.27;;;17.20;;
58101;SDS011;52034;51.926;6.320;2023-08-06T05:39:05;17.90;;;15.97;;
58101;SDS011;52034;51.926;6.320;2023-08-06T05:40:06;17.70;;;15.90;;
58101;SDS011;52034;51.926;6.320;2023-08-06T05:41:07;22.42;;;17.48;;
58101;SDS011;52034;51.926;6.320;2023-08-06T05:42:07;18.60;;;16.60;;
58101;SDS011;52034;51.926;6.320;2023-08-06T05:43:07;20.00;;;16.30;;
58101;SDS011;52034;51.926;6.320;2023-08-06T05:44:07;19.93;;;16.40;;
58101;SDS011;52034;51.926;6.320;2023-08-06T05:45:08;19.67;;;17.23;;
58101;SDS011;52034;51.926;6.320;2023-08-06T05:47:10;21.88;;;15.77;;
58101;SDS011;52034;51.926;6.320;2023-08-06T05:48:10;18.80;;;16.93;;
58101;SDS011;52034;51.926;6.320;2023-08-06T05:49:10;17.20;;;15.40;;
58101;SDS011;52034;51.926;6.320;2023-08-06T05:50:12;20.05;;;16.90;;
58101;SDS011;52034;51.926;6.320;2023-08-06T05:51:13;19.67;;;16.13;;
58101;SDS011;52034;51.926;6.320;2023-08-06T05:52:13;19.20;;;16.57;;
58101;SDS011;52034;51.926;6.320;2023-08-06T05:53:13;18.17;;;16.30;;
58101;SDS011;52034;51.926;6.320;2023-08-06T05:54:14;18.07;;;15.77;;
58101;SDS011;52034;51.926;6.320;2023-08-06T05:55:14;21.17;;;16.70;;
58101;SDS011;52034;51.926;6.320;2023-08-06T05:56:14;20.13;;;17.70;;
58101;SDS011;52034;51.926;6.320;2023-08-06T05:57:15;18.33;;;16.45;;
58101;SDS011;52034;51.926;6.320;2023-08-06T05:58:16;19.40;;;16.30;;
58101;SDS011;52034;51.926;6.320;2023-08-06T05:59:16;20.83;;;16.53;;
58101;SDS011;52034;51.926;6.320;2023-08-06T06:00:17;19.80;;;17.07;;
58101;SDS011;52034;51.926;6.320;2023-08-06T06:01:20;19.05;;;16.92;;
58101;SDS011;52034;51.926;6.320;2023-08-06T06:02:20;18.30;;;16.50;;
58101;SDS011;52034;51.926;6.320;2023-08-06T06:03:20;20.53;;;18.33;;
58101;SDS011;52034;51.926;6.320;2023-08-06T06:04:21;19.20;;;15.63;;
58101;SDS011;52034;51.926;6.320;2023-08-06T06:05:21;19.77;;;17.73;;
58101;SDS011;52034;51.926;6.320;2023-08-06T06:06:21;18.80;;;16.90;;
58101;SDS011;52034;51.926;6.320;2023-08-06T06:07:22;19.70;;;17.57;;
58101;SDS011;52034;51.926;6.320;2023-08-06T06:08:22;18.80;;;16.90;;
58101;SDS011;52034;51.926;6.320;2023-08-06T06:09:22;19.20;;;17.20;;